sensor_id;sensor_type;location;lat;lon;timestamp;temperature;humidity
43087;DHT22;28708;52.224;6.924;2023-03-02T00:01:56;1.60;99.90
43087;DHT22;28708;52.224;6.924;2023-03-02T00:04:37;1.60;99.90
43087;DHT22;28708;52.224;6.924;2023-03-02T00:07:08;1.60;99.90
43087;DHT22;28708;52.224;6.924;2023-03-02T00:09:35;1.60;99.90
43087;DHT22;28708;52.224;6.924;2023-03-02T00:12:01;1.50;99.90
43087;DHT22;28708;52.224;6.924;2023-03-02T00:14:27;1.50;99.90
43087;DHT22;28708;52.224;6.924;2023-03-02T00:16:53;1.50;99.90
43087;DHT22;28708;52.224;6.924;2023-03-02T00:19:18;1.50;99.90
43087;DHT22;28708;52.224;6.924;2023-03-02T00:21:44;1.40;99.90
43087;DHT22;28708;52.224;6.924;2023-03-02T00:24:10;1.40;99.90
43087;DHT22;28708;52.224;6.924;2023-03-02T00:26:36;1.40;99.90
43087;DHT22;28708;52.224;6.924;2023-03-02T00:29:02;1.40;99.90
43087;DHT22;28708;52.224;6.924;2023-03-02T00:31:28;1.30;99.90
43087;DHT22;28708;52.224;6.924;2023-03-02T00:33:53;1.30;99.90
43087;DHT22;28708;52.224;6.924;2023-03-02T00:36:20;1.20;99.90
43087;DHT22;28708;52.224;6.924;2023-03-02T00:38:46;1.30;99.90
43087;DHT22;28708;52.224;6.924;2023-03-02T00:41:13;1.20;99.90
43087;DHT22;28708;52.224;6.924;2023-03-02T00:43:39;1.20;99.90
43087;DHT22;28708;52.224;6.924;2023-03-02T00:46:13;1.20;99.90
43087;DHT22;28708;52.224;6.924;2023-03-02T00:48:39;1.20;99.90
43087;DHT22;28708;52.224;6.924;2023-03-02T00:51:05;1.20;99.90
43087;DHT22;28708;52.224;6.924;2023-03-02T00:53:32;1.20;99.90
43087;DHT22;28708;52.224;6.924;2023-03-02T00:55:59;1.30;99.90
43087;DHT22;28708;52.224;6.924;2023-03-02T00:58:26;1.30;99.90
43087;DHT22;28708;52.224;6.924;2023-03-02T01:00:53;1.30;99.90
43087;DHT22;28708;52.224;6.924;2023-03-02T01:03:20;1.20;99.90
43087;DHT22;28708;52.224;6.924;2023-03-02T01:05:46;1.30;99.90
43087;DHT22;28708;52.224;6.924;2023-03-02T01:08:11;1.30;99.90
43087;DHT22;28708;52.224;6.924;2023-03-02T01:10:37;1.30;99.90
43087;DHT22;28708;52.224;6.924;2023-03-02T01:13:04;1.30;99.90
43087;DHT22;28708;52.224;6.924;2023-03-02T01:15:31;1.30;99.90
43087;DHT22;28708;52.224;6.924;2023-03-02T01:17:59;1.30;99.90
43087;DHT22;28708;52.224;6.924;2023-03-02T01:20:25;1.20;99.90
43087;DHT22;28708;52.224;6.924;2023-03-02T01:22:51;1.20;99.90
43087;DHT22;28708;52.224;6.924;2023-03-02T01:25:16;1.20;99.90
43087;DHT22;28708;52.224;6.924;2023-03-02T01:27:42;1.20;99.90
43087;DHT22;28708;52.224;6.924;2023-03-02T01:30:09;1.10;99.90
43087;DHT22;28708;52.224;6.924;2023-03-02T01:32:34;1.10;99.90
43087;DHT22;28708;52.224;6.924;2023-03-02T01:35:00;1.10;99.90
43087;DHT22;28708;52.224;6.924;2023-03-02T01:37:26;1.00;99.90
43087;DHT22;28708;52.224;6.924;2023-03-02T01:39:51;1.00;99.90
43087;DHT22;28708;52.224;6.924;2023-03-02T01:42:17;1.10;99.90
43087;DHT22;28708;52.224;6.924;2023-03-02T01:44:48;1.00;99.90
43087;DHT22;28708;52.224;6.924;2023-03-02T01:47:36;1.10;99.90
43087;DHT22;28708;52.224;6.924;2023-03-02T01:50:21;1.00;99.90
43087;DHT22;28708;52.224;6.924;2023-03-02T01:52:52;1.00;99.90
43087;DHT22;28708;52.224;6.924;2023-03-02T01:55:22;1.00;99.90
43087;DHT22;28708;52.224;6.924;2023-03-02T01:57:50;1.00;99.90
43087;DHT22;28708;52.224;6.924;2023-03-02T02:00:21;0.90;99.90
43087;DHT22;28708;52.224;6.924;2023-03-02T02:02:48;1.00;99.90
43087;DHT22;28708;52.224;6.924;2023-03-02T02:05:21;0.90;99.90
43087;DHT22;28708;52.224;6.924;2023-03-02T02:07:49;0.90;99.90
43087;DHT22;28708;52.224;6.924;2023-03-02T02:10:15;1.00;99.90
43087;DHT22;28708;52.224;6.924;2023-03-02T02:12:41;1.00;99.90
43087;DHT22;28708;52.224;6.924;2023-03-02T02:15:07;1.00;99.90
43087;DHT22;28708;52.224;6.924;2023-03-02T02:17:33;1.00;99.90
43087;DHT22;28708;52.224;6.924;2023-03-02T02:25:44;0.90;99.90
43087;DHT22;28708;52.224;6.924;2023-03-02T02:28:19;0.90;99.90
43087;DHT22;28708;52.224;6.924;2023-03-02T02:30:49;1.00;99.90
43087;DHT22;28708;52.224;6.924;2023-03-02T02:33:18;1.00;99.90
43087;DHT22;28708;52.224;6.924;2023-03-02T02:35:46;0.90;99.90
43087;DHT22;28708;52.224;6.924;2023-03-02T02:38:15;0.90;99.90
43087;DHT22;28708;52.224;6.924;2023-03-02T02:40:47;0.90;99.90
43087;DHT22;28708;52.224;6.924;2023-03-02T02:43:18;0.90;99.90
43087;DHT22;28708;52.224;6.924;2023-03-02T02:45:45;0.90;99.90
43087;DHT22;28708;52.224;6.924;2023-03-02T02:48:17;0.90;99.90
43087;DHT22;28708;52.224;6.924;2023-03-02T02:50:43;0.80;99.90
43087;DHT22;28708;52.224;6.924;2023-03-02T02:53:13;0.90;99.90
43087;DHT22;28708;52.224;6.924;2023-03-02T02:55:41;0.90;99.90
43087;DHT22;28708;52.224;6.924;2023-03-02T03:00:47;0.90;99.90
43087;DHT22;28708;52.224;6.924;2023-03-02T03:03:44;0.90;99.90
43087;DHT22;28708;52.224;6.924;2023-03-02T03:06:18;0.90;99.90
43087;DHT22;28708;52.224;6.924;2023-03-02T03:11:23;0.80;99.90
43087;DHT22;28708;52.224;6.924;2023-03-02T03:16:30;0.80;99.90
43087;DHT22;28708;52.224;6.924;2023-03-02T03:19:00;0.80;99.90
43087;DHT22;28708;52.224;6.924;2023-03-02T03:21:26;0.70;99.90
43087;DHT22;28708;52.224;6.924;2023-03-02T03:23:52;0.70;99.90
43087;DHT22;28708;52.224;6.924;2023-03-02T03:26:18;0.70;99.90
43087;DHT22;28708;52.224;6.924;2023-03-02T03:28:46;0.60;99.90
43087;DHT22;28708;52.224;6.924;2023-03-02T03:31:11;0.60;99.90
43087;DHT22;28708;52.224;6.924;2023-03-02T03:33:37;0.60;99.90
43087;DHT22;28708;52.224;6.924;2023-03-02T03:36:03;0.60;99.90
43087;DHT22;28708;52.224;6.924;2023-03-02T03:38:29;0.50;99.90
43087;DHT22;28708;52.224;6.924;2023-03-02T03:40:55;0.50;99.90
43087;DHT22;28708;52.224;6.924;2023-03-02T03:43:21;0.50;99.90
43087;DHT22;28708;52.224;6.924;2023-03-02T03:45:51;0.50;99.90
43087;DHT22;28708;52.224;6.924;2023-03-02T03:48:18;0.60;99.90
43087;DHT22;28708;52.224;6.924;2023-03-02T03:50:45;0.60;99.90
43087;DHT22;28708;52.224;6.924;2023-03-02T03:53:11;0.50;99.90
43087;DHT22;28708;52.224;6.924;2023-03-02T03:55:37;0.60;99.90
43087;DHT22;28708;52.224;6.924;2023-03-02T03:58:02;0.60;99.90
43087;DHT22;28708;52.224;6.924;2023-03-02T04:00:28;0.50;99.90
43087;DHT22;28708;52.224;6.924;2023-03-02T04:03:00;0.50;99.90
43087;DHT22;28708;52.224;6.924;2023-03-02T04:05:28;0.50;99.90
43087;DHT22;28708;52.224;6.924;2023-03-02T04:07:54;0.40;99.90
43087;DHT22;28708;52.224;6.924;2023-03-02T04:10:20;0.40;99.90
43087;DHT22;28708;52.224;6.924;2023-03-02T04:12:47;0.40;99.90
43087;DHT22;28708;52.224;6.924;2023-03-02T04:15:15;0.40;99.90
43087;DHT22;28708;52.224;6.924;2023-03-02T04:17:41;0.40;99.90
43087;DHT22;28708;52.224;6.924;2023-03-02T04:20:11;0.40;99.90
43087;DHT22;28708;52.224;6.924;2023-03-02T04:22:46;0.40;99.90
43087;DHT22;28708;52.224;6.924;2023-03-02T04:25:14;0.40;99.90
43087;DHT22;28708;52.224;6.924;2023-03-02T04:27:46;0.30;99.90
43087;DHT22;28708;52.224;6.924;2023-03-02T04:30:12;0.30;99.90
43087;DHT22;28708;52.224;6.924;2023-03-02T04:32:38;0.20;99.90
43087;DHT22;28708;52.224;6.924;2023-03-02T04:35:04;0.20;99.90
43087;DHT22;28708;52.224;6.924;2023-03-02T04:37:30;0.20;99.90
43087;DHT22;28708;52.224;6.924;2023-03-02T04:39:56;0.20;99.90
43087;DHT22;28708;52.224;6.924;2023-03-02T04:42:21;0.20;99.90
43087;DHT22;28708;52.224;6.924;2023-03-02T04:44:48;0.20;99.90
43087;DHT22;28708;52.224;6.924;2023-03-02T04:47:13;0.10;99.90
43087;DHT22;28708;52.224;6.924;2023-03-02T04:49:39;0.10;99.90
43087;DHT22;28708;52.224;6.924;2023-03-02T04:52:05;0.10;99.90
43087;DHT22;28708;52.224;6.924;2023-03-02T04:54:32;0.10;99.90
43087;DHT22;28708;52.224;6.924;2023-03-02T04:56:58;0.20;99.90
43087;DHT22;28708;52.224;6.924;2023-03-02T04:59:26;0.30;99.90
43087;DHT22;28708;52.224;6.924;2023-03-02T05:01:57;0.30;99.90
43087;DHT22;28708;52.224;6.924;2023-03-02T05:04:23;0.30;99.90
43087;DHT22;28708;52.224;6.924;2023-03-02T05:06:50;0.40;99.90
43087;DHT22;28708;52.224;6.924;2023-03-02T05:09:15;0.40;99.90
43087;DHT22;28708;52.224;6.924;2023-03-02T05:11:41;0.40;99.90
43087;DHT22;28708;52.224;6.924;2023-03-02T05:14:09;0.40;99.90
43087;DHT22;28708;52.224;6.924;2023-03-02T05:16:36;0.40;99.90
43087;DHT22;28708;52.224;6.924;2023-03-02T05:19:04;0.40;99.90
43087;DHT22;28708;52.224;6.924;2023-03-02T05:21:30;0.40;99.90
43087;DHT22;28708;52.224;6.924;2023-03-02T05:23:55;0.40;99.90
43087;DHT22;28708;52.224;6.924;2023-03-02T05:26:21;0.40;99.90
43087;DHT22;28708;52.224;6.924;2023-03-02T05:28:47;0.40;99.90
43087;DHT22;28708;52.224;6.924;2023-03-02T05:31:22;0.40;99.90
43087;DHT22;28708;52.224;6.924;2023-03-02T05:33:48;0.40;99.90
43087;DHT22;28708;52.224;6.924;2023-03-02T05:36:14;0.40;99.90
43087;DHT22;28708;52.224;6.924;2023-03-02T05:38:40;0.40;99.90
43087;DHT22;28708;52.224;6.924;2023-03-02T05:41:08;0.40;99.90
43087;DHT22;28708;52.224;6.924;2023-03-02T05:43:34;0.40;99.90
43087;DHT22;28708;52.224;6.924;2023-03-02T05:46:00;0.40;99.90
43087;DHT22;28708;52.224;6.924;2023-03-02T05:48:30;0.30;99.90
43087;DHT22;28708;52.224;6.924;2023-03-02T05:50:56;0.30;99.90
43087;DHT22;28708;52.224;6.924;2023-03-02T05:53:22;0.30;99.90
43087;DHT22;28708;52.224;6.924;2023-03-02T05:55:48;0.20;99.90
43087;DHT22;28708;52.224;6.924;2023-03-02T05:58:16;0.30;99.90
43087;DHT22;28708;52.224;6.924;2023-03-02T06:00:43;0.30;99.90
43087;DHT22;28708;52.224;6.924;2023-03-02T06:03:09;0.30;99.90
43087;DHT22;28708;52.224;6.924;2023-03-02T06:05:35;0.40;99.90
43087;DHT22;28708;52.224;6.924;2023-03-02T06:08:01;0.40;99.90
43087;DHT22;28708;52.224;6.924;2023-03-02T06:10:26;0.40;99.90
43087;DHT22;28708;52.224;6.924;2023-03-02T06:12:52;0.40;99.90
43087;DHT22;28708;52.224;6.924;2023-03-02T06:15:18;0.50;99.90
43087;DHT22;28708;52.224;6.924;2023-03-02T06:17:44;0.50;99.90
43087;DHT22;28708;52.224;6.924;2023-03-02T06:20:10;0.50;99.90
43087;DHT22;28708;52.224;6.924;2023-03-02T06:22:38;0.50;99.90
43087;DHT22;28708;52.224;6.924;2023-03-02T06:25:16;0.50;99.90
43087;DHT22;28708;52.224;6.924;2023-03-02T06:27:43;0.60;99.90
43087;DHT22;28708;52.224;6.924;2023-03-02T06:30:13;0.60;99.90
43087;DHT22;28708;52.224;6.924;2023-03-02T06:32:39;0.70;99.90
43087;DHT22;28708;52.224;6.924;2023-03-02T06:35:06;0.60;99.90
43087;DHT22;28708;52.224;6.924;2023-03-02T06:37:32;0.70;99.90
43087;DHT22;28708;52.224;6.924;2023-03-02T06:39:58;0.70;99.90
43087;DHT22;28708;52.224;6.924;2023-03-02T06:42:25;0.70;99.90
43087;DHT22;28708;52.224;6.924;2023-03-02T06:44:50;0.80;99.90
43087;DHT22;28708;52.224;6.924;2023-03-02T06:47:17;0.70;99.90
43087;DHT22;28708;52.224;6.924;2023-03-02T06:49:43;0.70;99.90
43087;DHT22;28708;52.224;6.924;2023-03-02T06:52:09;0.80;99.90
43087;DHT22;28708;52.224;6.924;2023-03-02T06:54:37;0.80;99.90
43087;DHT22;28708;52.224;6.924;2023-03-02T06:57:03;0.80;99.90
43087;DHT22;28708;52.224;6.924;2023-03-02T06:59:29;0.80;99.90
43087;DHT22;28708;52.224;6.924;2023-03-02T07:01:54;0.90;99.90
43087;DHT22;28708;52.224;6.924;2023-03-02T07:04:20;0.90;99.90
43087;DHT22;28708;52.224;6.924;2023-03-02T07:06:46;0.90;99.90
43087;DHT22;28708;52.224;6.924;2023-03-02T07:09:12;0.90;99.90
43087;DHT22;28708;52.224;6.924;2023-03-02T07:11:39;0.90;99.90
43087;DHT22;28708;52.224;6.924;2023-03-02T07:14:04;1.00;99.90
43087;DHT22;28708;52.224;6.924;2023-03-02T07:16:32;1.00;99.90
43087;DHT22;28708;52.224;6.924;2023-03-02T07:18:58;1.00;99.90
43087;DHT22;28708;52.224;6.924;2023-03-02T07:21:23;1.10;99.90
43087;DHT22;28708;52.224;6.924;2023-03-02T07:23:49;1.10;99.90
43087;DHT22;28708;52.224;6.924;2023-03-02T07:26:15;1.10;99.90
43087;DHT22;28708;52.224;6.924;2023-03-02T07:28:41;1.20;99.90
43087;DHT22;28708;52.224;6.924;2023-03-02T07:31:08;1.30;99.90
43087;DHT22;28708;52.224;6.924;2023-03-02T07:33:35;1.30;99.90
43087;DHT22;28708;52.224;6.924;2023-03-02T07:36:01;1.30;99.90
43087;DHT22;28708;52.224;6.924;2023-03-02T07:38:27;1.20;99.90
43087;DHT22;28708;52.224;6.924;2023-03-02T07:40:53;1.30;99.90
43087;DHT22;28708;52.224;6.924;2023-03-02T07:43:19;1.30;99.90
43087;DHT22;28708;52.224;6.924;2023-03-02T07:45:45;1.30;99.90
43087;DHT22;28708;52.224;6.924;2023-03-02T07:48:11;1.40;99.90
43087;DHT22;28708;52.224;6.924;2023-03-02T07:50:37;1.30;99.90
43087;DHT22;28708;52.224;6.924;2023-03-02T07:53:02;1.40;99.90
43087;DHT22;28708;52.224;6.924;2023-03-02T07:55:28;1.40;99.90
43087;DHT22;28708;52.224;6.924;2023-03-02T07:57:54;1.40;99.90
43087;DHT22;28708;52.224;6.924;2023-03-02T08:00:20;1.50;99.90
43087;DHT22;28708;52.224;6.924;2023-03-02T08:02:46;1.50;99.90
43087;DHT22;28708;52.224;6.924;2023-03-02T08:05:12;1.60;99.90
43087;DHT22;28708;52.224;6.924;2023-03-02T08:07:38;1.70;99.90
43087;DHT22;28708;52.224;6.924;2023-03-02T08:10:05;1.70;99.90
43087;DHT22;28708;52.224;6.924;2023-03-02T08:12:31;1.70;99.90
43087;DHT22;28708;52.224;6.924;2023-03-02T08:14:56;1.80;99.90
43087;DHT22;28708;52.224;6.924;2023-03-02T08:17:22;1.90;99.90
43087;DHT22;28708;52.224;6.924;2023-03-02T08:19:48;2.00;99.90
43087;DHT22;28708;52.224;6.924;2023-03-02T08:22:14;2.10;99.90
43087;DHT22;28708;52.224;6.924;2023-03-02T08:24:39;2.10;99.90
43087;DHT22;28708;52.224;6.924;2023-03-02T08:27:07;2.10;99.90
43087;DHT22;28708;52.224;6.924;2023-03-02T08:29:33;2.20;99.90
43087;DHT22;28708;52.224;6.924;2023-03-02T08:31:59;2.20;99.90
43087;DHT22;28708;52.224;6.924;2023-03-02T08:34:24;2.20;99.90
43087;DHT22;28708;52.224;6.924;2023-03-02T08:36:51;2.10;99.90
43087;DHT22;28708;52.224;6.924;2023-03-02T08:39:17;2.10;99.90
43087;DHT22;28708;52.224;6.924;2023-03-02T08:41:43;2.20;99.90
43087;DHT22;28708;52.224;6.924;2023-03-02T08:44:09;2.40;99.90
43087;DHT22;28708;52.224;6.924;2023-03-02T08:46:35;2.50;99.90
43087;DHT22;28708;52.224;6.924;2023-03-02T08:49:00;2.80;99.90
43087;DHT22;28708;52.224;6.924;2023-03-02T08:51:26;3.00;99.90
43087;DHT22;28708;52.224;6.924;2023-03-02T08:53:53;3.00;99.90
43087;DHT22;28708;52.224;6.924;2023-03-02T08:56:25;3.20;99.90
43087;DHT22;28708;52.224;6.924;2023-03-02T08:58:52;3.40;99.90
43087;DHT22;28708;52.224;6.924;2023-03-02T09:01:21;3.70;99.90
43087;DHT22;28708;52.224;6.924;2023-03-02T09:03:46;3.90;99.90
43087;DHT22;28708;52.224;6.924;2023-03-02T09:06:13;3.90;99.90
43087;DHT22;28708;52.224;6.924;2023-03-02T09:08:38;3.90;99.90
43087;DHT22;28708;52.224;6.924;2023-03-02T09:11:04;3.60;99.90
43087;DHT22;28708;52.224;6.924;2023-03-02T09:13:30;3.50;99.90
43087;DHT22;28708;52.224;6.924;2023-03-02T09:15:56;3.80;99.90
43087;DHT22;28708;52.224;6.924;2023-03-02T09:18:22;3.80;99.90
43087;DHT22;28708;52.224;6.924;2023-03-02T09:20:51;3.80;99.90
43087;DHT22;28708;52.224;6.924;2023-03-02T09:23:17;3.50;99.90
43087;DHT22;28708;52.224;6.924;2023-03-02T09:25:43;3.40;99.90
43087;DHT22;28708;52.224;6.924;2023-03-02T09:28:09;3.30;99.90
43087;DHT22;28708;52.224;6.924;2023-03-02T09:30:35;3.30;99.90
43087;DHT22;28708;52.224;6.924;2023-03-02T09:33:01;3.30;99.90
43087;DHT22;28708;52.224;6.924;2023-03-02T09:35:26;3.60;99.90
43087;DHT22;28708;52.224;6.924;2023-03-02T09:37:52;3.90;99.90
43087;DHT22;28708;52.224;6.924;2023-03-02T09:40:21;4.40;99.90
43087;DHT22;28708;52.224;6.924;2023-03-02T09:54:15;4.00;99.90
43087;DHT22;28708;52.224;6.924;2023-03-02T09:56:45;4.00;99.90
43087;DHT22;28708;52.224;6.924;2023-03-02T09:59:22;4.20;99.90
43087;DHT22;28708;52.224;6.924;2023-03-02T10:04:50;4.50;99.90
43087;DHT22;28708;52.224;6.924;2023-03-02T10:07:35;4.70;99.90
43087;DHT22;28708;52.224;6.924;2023-03-02T10:13:22;4.60;99.90
43087;DHT22;28708;52.224;6.924;2023-03-02T10:21:41;6.70;99.90
43087;DHT22;28708;52.224;6.924;2023-03-02T10:24:32;8.00;99.90
43087;DHT22;28708;52.224;6.924;2023-03-02T10:29:48;9.50;99.90
43087;DHT22;28708;52.224;6.924;2023-03-02T10:32:21;9.50;99.90
43087;DHT22;28708;52.224;6.924;2023-03-02T10:34:49;10.20;99.90
43087;DHT22;28708;52.224;6.924;2023-03-02T10:37:24;10.40;99.90
43087;DHT22;28708;52.224;6.924;2023-03-02T10:39:51;10.10;99.90
43087;DHT22;28708;52.224;6.924;2023-03-02T10:42:27;11.70;99.90
43087;DHT22;28708;52.224;6.924;2023-03-02T10:45:35;12.30;99.90
43087;DHT22;28708;52.224;6.924;2023-03-02T10:48:11;11.00;99.90
43087;DHT22;28708;52.224;6.924;2023-03-02T10:50:38;12.00;99.90
43087;DHT22;28708;52.224;6.924;2023-03-02T10:53:14;12.00;99.90
43087;DHT22;28708;52.224;6.924;2023-03-02T10:55:45;11.30;99.90
43087;DHT22;28708;52.224;6.924;2023-03-02T10:58:30;10.40;99.90
43087;DHT22;28708;52.224;6.924;2023-03-02T11:01:01;11.30;99.90
43087;DHT22;28708;52.224;6.924;2023-03-02T11:03:27;11.30;99.90
43087;DHT22;28708;52.224;6.924;2023-03-02T11:05:53;12.40;99.90
43087;DHT22;28708;52.224;6.924;2023-03-02T11:08:24;11.40;99.90
43087;DHT22;28708;52.224;6.924;2023-03-02T11:11:01;12.30;99.90
43087;DHT22;28708;52.224;6.924;2023-03-02T11:13:33;12.80;99.90
43087;DHT22;28708;52.224;6.924;2023-03-02T11:16:01;11.20;99.90
43087;DHT22;28708;52.224;6.924;2023-03-02T11:18:37;11.40;99.90
43087;DHT22;28708;52.224;6.924;2023-03-02T11:21:09;12.80;99.90
43087;DHT22;28708;52.224;6.924;2023-03-02T11:23:44;13.00;99.90
43087;DHT22;28708;52.224;6.924;2023-03-02T11:26:20;12.60;99.90
43087;DHT22;28708;52.224;6.924;2023-03-02T11:31:44;13.10;99.90
43087;DHT22;28708;52.224;6.924;2023-03-02T11:37:15;15.00;99.90
43087;DHT22;28708;52.224;6.924;2023-03-02T11:42:30;12.50;99.90
43087;DHT22;28708;52.224;6.924;2023-03-02T11:47:41;12.40;99.90
43087;DHT22;28708;52.224;6.924;2023-03-02T11:50:09;13.10;99.90
43087;DHT22;28708;52.224;6.924;2023-03-02T11:52:38;13.10;99.90
43087;DHT22;28708;52.224;6.924;2023-03-02T11:55:20;13.30;99.90
43087;DHT22;28708;52.224;6.924;2023-03-02T11:57:55;13.00;99.90
43087;DHT22;28708;52.224;6.924;2023-03-02T12:00:27;11.30;99.90
43087;DHT22;28708;52.224;6.924;2023-03-02T12:05:34;9.70;99.90
43087;DHT22;28708;52.224;6.924;2023-03-02T12:08:06;8.80;99.90
43087;DHT22;28708;52.224;6.924;2023-03-02T12:10:39;8.40;99.90
43087;DHT22;28708;52.224;6.924;2023-03-02T12:13:24;8.00;99.90
43087;DHT22;28708;52.224;6.924;2023-03-02T12:15:50;8.00;99.90
43087;DHT22;28708;52.224;6.924;2023-03-02T12:21:18;7.80;99.90
43087;DHT22;28708;52.224;6.924;2023-03-02T12:31:21;8.00;99.90
43087;DHT22;28708;52.224;6.924;2023-03-02T12:33:49;8.20;99.90
43087;DHT22;28708;52.224;6.924;2023-03-02T12:36:23;8.10;99.90
43087;DHT22;28708;52.224;6.924;2023-03-02T12:46:53;8.00;99.90
43087;DHT22;28708;52.224;6.924;2023-03-02T12:52:03;8.20;99.90
43087;DHT22;28708;52.224;6.924;2023-03-02T12:54:42;8.20;99.90
43087;DHT22;28708;52.224;6.924;2023-03-02T12:57:16;8.30;99.90
43087;DHT22;28708;52.224;6.924;2023-03-02T12:59:53;8.30;99.90
43087;DHT22;28708;52.224;6.924;2023-03-02T13:02:22;8.20;99.90
43087;DHT22;28708;52.224;6.924;2023-03-02T13:04:52;8.10;99.90
43087;DHT22;28708;52.224;6.924;2023-03-02T13:07:23;8.30;99.90
43087;DHT22;28708;52.224;6.924;2023-03-02T13:09:50;8.40;99.90
43087;DHT22;28708;52.224;6.924;2023-03-02T13:12:17;8.50;99.90
43087;DHT22;28708;52.224;6.924;2023-03-02T13:14:46;8.50;99.90
43087;DHT22;28708;52.224;6.924;2023-03-02T13:17:31;8.20;99.90
43087;DHT22;28708;52.224;6.924;2023-03-02T13:20:01;8.10;99.90
43087;DHT22;28708;52.224;6.924;2023-03-02T13:22:28;8.20;99.90
43087;DHT22;28708;52.224;6.924;2023-03-02T13:25:03;8.30;99.90
43087;DHT22;28708;52.224;6.924;2023-03-02T13:27:30;8.60;99.90
43087;DHT22;28708;52.224;6.924;2023-03-02T13:30:20;8.60;99.90
43087;DHT22;28708;52.224;6.924;2023-03-02T13:32:46;8.60;99.90
43087;DHT22;28708;52.224;6.924;2023-03-02T13:35:20;8.80;99.90
43087;DHT22;28708;52.224;6.924;2023-03-02T13:37:55;8.80;99.90
43087;DHT22;28708;52.224;6.924;2023-03-02T13:42:46;8.50;99.90
43087;DHT22;28708;52.224;6.924;2023-03-02T13:45:28;8.40;99.90
43087;DHT22;28708;52.224;6.924;2023-03-02T13:47:56;8.40;99.90
43087;DHT22;28708;52.224;6.924;2023-03-02T13:50:27;8.60;99.90
43087;DHT22;28708;52.224;6.924;2023-03-02T13:52:58;8.70;99.90
43087;DHT22;28708;52.224;6.924;2023-03-02T13:55:26;8.70;99.90
43087;DHT22;28708;52.224;6.924;2023-03-02T13:57:52;8.60;99.90
43087;DHT22;28708;52.224;6.924;2023-03-02T14:02:46;8.70;99.90
43087;DHT22;28708;52.224;6.924;2023-03-02T14:05:25;8.70;99.90
43087;DHT22;28708;52.224;6.924;2023-03-02T14:08:00;8.60;99.90
43087;DHT22;28708;52.224;6.924;2023-03-02T14:10:27;8.80;99.90
43087;DHT22;28708;52.224;6.924;2023-03-02T14:13:20;8.80;99.90
43087;DHT22;28708;52.224;6.924;2023-03-02T14:15:48;9.00;99.90
43087;DHT22;28708;52.224;6.924;2023-03-02T14:18:40;8.90;99.90
43087;DHT22;28708;52.224;6.924;2023-03-02T14:21:12;8.80;99.90
43087;DHT22;28708;52.224;6.924;2023-03-02T14:23:38;8.80;99.90
43087;DHT22;28708;52.224;6.924;2023-03-02T14:28:46;9.00;99.90
43087;DHT22;28708;52.224;6.924;2023-03-02T14:31:12;9.10;99.90
43087;DHT22;28708;52.224;6.924;2023-03-02T14:33:38;9.00;99.90
43087;DHT22;28708;52.224;6.924;2023-03-02T14:36:03;8.90;99.90
43087;DHT22;28708;52.224;6.924;2023-03-02T14:38:30;9.00;99.90
43087;DHT22;28708;52.224;6.924;2023-03-02T14:40:56;9.10;99.90
43087;DHT22;28708;52.224;6.924;2023-03-02T14:43:22;9.00;99.90
43087;DHT22;28708;52.224;6.924;2023-03-02T14:45:50;8.80;99.90
43087;DHT22;28708;52.224;6.924;2023-03-02T14:48:19;9.10;99.90
43087;DHT22;28708;52.224;6.924;2023-03-02T14:50:47;9.10;99.90
43087;DHT22;28708;52.224;6.924;2023-03-02T14:53:19;8.80;99.90
43087;DHT22;28708;52.224;6.924;2023-03-02T14:55:47;9.00;99.90
43087;DHT22;28708;52.224;6.924;2023-03-02T14:58:18;9.00;99.90
43087;DHT22;28708;52.224;6.924;2023-03-02T15:00:45;8.90;99.90
43087;DHT22;28708;52.224;6.924;2023-03-02T15:03:20;8.70;99.90
43087;DHT22;28708;52.224;6.924;2023-03-02T15:05:50;8.70;99.90
43087;DHT22;28708;52.224;6.924;2023-03-02T15:08:19;8.80;99.90
43087;DHT22;28708;52.224;6.924;2023-03-02T15:10:45;8.80;99.90
43087;DHT22;28708;52.224;6.924;2023-03-02T15:13:12;8.90;99.90
43087;DHT22;28708;52.224;6.924;2023-03-02T15:15:42;8.60;99.90
43087;DHT22;28708;52.224;6.924;2023-03-02T15:18:10;8.40;99.90
43087;DHT22;28708;52.224;6.924;2023-03-02T15:20:36;8.40;99.90
43087;DHT22;28708;52.224;6.924;2023-03-02T15:23:02;8.50;99.90
43087;DHT22;28708;52.224;6.924;2023-03-02T15:25:28;8.50;99.90
43087;DHT22;28708;52.224;6.924;2023-03-02T15:27:55;8.60;99.90
43087;DHT22;28708;52.224;6.924;2023-03-02T15:30:21;8.40;99.90
43087;DHT22;28708;52.224;6.924;2023-03-02T15:32:49;8.40;99.90
43087;DHT22;28708;52.224;6.924;2023-03-02T15:35:14;8.20;99.90
43087;DHT22;28708;52.224;6.924;2023-03-02T15:37:40;8.10;99.90
43087;DHT22;28708;52.224;6.924;2023-03-02T15:40:06;8.10;99.90
43087;DHT22;28708;52.224;6.924;2023-03-02T15:42:33;8.10;99.90
43087;DHT22;28708;52.224;6.924;2023-03-02T15:44:59;8.00;99.90
43087;DHT22;28708;52.224;6.924;2023-03-02T15:47:24;8.10;99.90
43087;DHT22;28708;52.224;6.924;2023-03-02T15:49:50;8.10;99.90
43087;DHT22;28708;52.224;6.924;2023-03-02T15:52:16;8.00;99.90
43087;DHT22;28708;52.224;6.924;2023-03-02T15:54:44;7.90;99.90
43087;DHT22;28708;52.224;6.924;2023-03-02T15:57:09;7.90;99.90
43087;DHT22;28708;52.224;6.924;2023-03-02T15:59:35;7.80;99.90
43087;DHT22;28708;52.224;6.924;2023-03-02T16:02:00;7.80;99.90
43087;DHT22;28708;52.224;6.924;2023-03-02T16:04:31;7.70;99.90
43087;DHT22;28708;52.224;6.924;2023-03-02T16:06:57;7.70;99.90
43087;DHT22;28708;52.224;6.924;2023-03-02T16:09:23;7.60;99.90
43087;DHT22;28708;52.224;6.924;2023-03-02T16:11:50;7.40;99.90
43087;DHT22;28708;52.224;6.924;2023-03-02T16:14:16;7.30;99.90
43087;DHT22;28708;52.224;6.924;2023-03-02T16:16:42;7.10;99.90
43087;DHT22;28708;52.224;6.924;2023-03-02T16:19:10;7.00;99.90
43087;DHT22;28708;52.224;6.924;2023-03-02T16:21:37;7.00;99.90
43087;DHT22;28708;52.224;6.924;2023-03-02T16:24:03;6.90;99.90
43087;DHT22;28708;52.224;6.924;2023-03-02T16:26:31;6.80;99.90
43087;DHT22;28708;52.224;6.924;2023-03-02T16:28:58;6.70;99.90
43087;DHT22;28708;52.224;6.924;2023-03-02T16:31:24;6.60;99.90
43087;DHT22;28708;52.224;6.924;2023-03-02T16:33:54;6.50;99.90
43087;DHT22;28708;52.224;6.924;2023-03-02T16:36:20;6.40;99.90
43087;DHT22;28708;52.224;6.924;2023-03-02T16:38:46;6.30;99.90
43087;DHT22;28708;52.224;6.924;2023-03-02T16:41:18;6.20;99.90
43087;DHT22;28708;52.224;6.924;2023-03-02T16:43:47;6.10;99.90
43087;DHT22;28708;52.224;6.924;2023-03-02T16:46:14;6.10;99.90
43087;DHT22;28708;52.224;6.924;2023-03-02T16:48:40;6.00;99.90
43087;DHT22;28708;52.224;6.924;2023-03-02T16:51:06;5.90;99.90
43087;DHT22;28708;52.224;6.924;2023-03-02T16:53:32;5.80;99.90
43087;DHT22;28708;52.224;6.924;2023-03-02T16:55:58;5.80;99.90
43087;DHT22;28708;52.224;6.924;2023-03-02T16:58:24;5.70;99.90
43087;DHT22;28708;52.224;6.924;2023-03-02T17:00:49;5.60;99.90
43087;DHT22;28708;52.224;6.924;2023-03-02T17:03:15;5.50;99.90
43087;DHT22;28708;52.224;6.924;2023-03-02T17:05:41;5.30;99.90
43087;DHT22;28708;52.224;6.924;2023-03-02T17:08:12;5.30;99.90
43087;DHT22;28708;52.224;6.924;2023-03-02T17:10:39;5.20;99.90
43087;DHT22;28708;52.224;6.924;2023-03-02T17:13:05;5.10;99.90
43087;DHT22;28708;52.224;6.924;2023-03-02T17:15:31;5.00;99.90